首页
METAR-TAF:

METAR-TAF

机场 :

Langlade County Airport

Antigo, 威斯康辛州, 美国

纬度: 45-09-15N, 经度: 89-06-39W, 海拔: 464米

当前天气观测

该预报发布于17分钟前的00:55 UTC
静风
温度 0°C
湿度 86%
气压 1012 hPa
能見度: 11.3公里
阴天层高于1600英尺

METAR: KAIG 200055Z AUTO 00000KT 7SM OVC016 00/M02 A2987 RMK AO2 T10051019

时间: 19:12 (01:12 UTC)


TAF: 丢失

超过4000个机场的气象观测和天气预报(METAR&TAF报告)。

可查询的气象台以黄色和红色小点在地图上表示。

将鼠标移到小点上方,可查看气象台名称。

然后点击查看天气观测和预报。

如需切换地图:点击带黑十字的绿色按钮放大地图;点击带横线的绿色按钮缩小地图;或者点击绿色箭头查看邻近地区的地图。


METAR-TAF: